Time;durP1;ratioP1;P1;durP2;ratioP2;P2;SDS_P1;SDS_P2;PMS_P1;PMS_P2;Temp;Humidity;BMP_temperature;BMP_pressure;BME280_temperature;BME280_humidity;BME280_pressure;Samples;Min_cycle;Max_cycle;Signal;HPM_P1;HPM_P2
2022/08/21 00:00:06;;;;;;;4.50;3.60;;;;;;;;;;5106207;28;20188;-75
2022/08/21 00:02:44;;;;;;;6.53;3.90;;;;;;;;;;5085246;28;20220;-74
2022/08/21 00:05:10;;;;;;;4.30;3.87;;;;;;;;;;5094878;28;20320;-74
2022/08/21 00:07:37;;;;;;;4.30;3.63;;;;;;;;;;5111659;28;20173;-74
2022/08/21 00:10:04;;;;;;;4.33;3.80;;;;;;;;;;5111493;28;20171;-75
2022/08/21 00:12:31;;;;;;;4.50;4.00;;;;;;;;;;5079541;28;20702;-75
2022/08/21 00:14:57;;;;;;;8.13;4.67;;;;;;;;;;5090679;28;20189;-75
2022/08/21 00:17:23;;;;;;;7.80;5.10;;;;;;;;;;5092884;28;20259;-75
2022/08/21 00:19:49;;;;;;;6.67;4.30;;;;;;;;;;5086567;28;20208;-74
2022/08/21 00:22:15;;;;;;;4.40;4.00;;;;;;;;;;5082319;28;20201;-76
2022/08/21 00:24:42;;;;;;;4.33;3.80;;;;;;;;;;5091166;28;20594;-76
2022/08/21 00:27:08;;;;;;;5.37;3.70;;;;;;;;;;5089661;28;20613;-76
2022/08/21 00:29:34;;;;;;;5.27;4.27;;;;;;;;;;5072477;28;20673;-76
2022/08/21 00:32:00;;;;;;;5.57;4.23;;;;;;;;;;5081105;28;20226;-75
2022/08/21 00:34:26;;;;;;;5.30;4.10;;;;;;;;;;5092842;28;20298;-76
2022/08/21 00:36:52;;;;;;;6.53;4.03;;;;;;;;;;5094668;28;20542;-74
2022/08/21 00:39:18;;;;;;;4.00;3.70;;;;;;;;;;5076542;28;20359;-74
2022/08/21 00:41:45;;;;;;;4.87;4.20;;;;;;;;;;5086621;28;20551;-75
2022/08/21 00:44:12;;;;;;;5.80;4.07;;;;;;;;;;5093031;28;20220;-75
2022/08/21 00:46:39;;;;;;;4.90;4.03;;;;;;;;;;5089926;28;20271;-76
2022/08/21 00:49:06;;;;;;;4.60;4.10;;;;;;;;;;5092714;28;20231;-74
2022/08/21 00:51:35;;;;;;;5.77;4.10;;;;;;;;;;5084185;28;20189;-75
2022/08/21 00:54:02;;;;;;;5.80;3.97;;;;;;;;;;5090477;28;20188;-75
2022/08/21 00:56:28;;;;;;;4.63;4.10;;;;;;;;;;5086845;28;20181;-75
2022/08/21 00:58:56;;;;;;;4.73;4.00;;;;;;;;;;5087696;28;20992;-75
2022/08/21 01:01:22;;;;;;;5.87;4.37;;;;;;;;;;5086998;28;20668;-74
2022/08/21 01:03:49;;;;;;;4.43;4.03;;;;;;;;;;5091759;28;20238;-74
2022/08/21 01:06:15;;;;;;;5.93;3.70;;;;;;;;;;5090666;28;20199;-76
2022/08/21 01:08:42;;;;;;;6.53;4.30;;;;;;;;;;5090401;28;20176;-74
2022/08/21 01:11:08;;;;;;;4.43;3.83;;;;;;;;;;5087877;28;20188;-75
2022/08/21 01:13:35;;;;;;;4.23;3.83;;;;;;;;;;5091144;28;20671;-75
2022/08/21 01:16:03;;;;;;;5.20;3.63;;;;;;;;;;5087116;28;20212;-75
2022/08/21 01:18:29;;;;;;;4.50;4.10;;;;;;;;;;5093111;28;20181;-74
2022/08/21 01:21:01;;;;;;;5.57;4.23;;;;;;;;;;5093539;28;20196;-76
2022/08/21 01:23:27;;;;;;;4.83;4.07;;;;;;;;;;5079606;28;20201;-74
2022/08/21 01:25:54;;;;;;;6.83;4.47;;;;;;;;;;5081287;28;20192;-75
2022/08/21 01:28:21;;;;;;;5.93;4.30;;;;;;;;;;5083412;28;20177;-74
2022/08/21 01:30:49;;;;;;;6.33;4.30;;;;;;;;;;5083036;28;20185;-74
2022/08/21 01:33:15;;;;;;;7.23;4.53;;;;;;;;;;5102376;28;20192;-75
2022/08/21 01:35:41;;;;;;;5.27;4.30;;;;;;;;;;5086945;28;20272;-75
2022/08/21 01:38:08;;;;;;;4.90;4.13;;;;;;;;;;5084749;28;20231;-74
2022/08/21 01:40:34;;;;;;;5.70;4.60;;;;;;;;;;5090729;28;20697;-75
2022/08/21 01:43:00;;;;;;;5.70;4.30;;;;;;;;;;5093140;28;20203;-75
2022/08/21 01:45:27;;;;;;;5.47;4.37;;;;;;;;;;5089864;28;20180;-75
2022/08/21 01:47:53;;;;;;;5.10;4.33;;;;;;;;;;5091998;28;20185;-74
2022/08/21 01:50:20;;;;;;;4.93;4.43;;;;;;;;;;5100869;28;20191;-74
2022/08/21 01:52:46;;;;;;;4.75;4.20;;;;;;;;;;5097120;28;20473;-72
2022/08/21 01:55:13;;;;;;;4.50;4.10;;;;;;;;;;5093910;28;20204;-73
2022/08/21 01:57:39;;;;;;;4.70;4.20;;;;;;;;;;5093022;28;20172;-73
2022/08/21 02:00:08;;;;;;;4.70;4.20;;;;;;;;;;5073318;28;20299;-74
2022/08/21 02:02:38;;;;;;;6.03;3.87;;;;;;;;;;5109011;28;20199;-74
2022/08/21 02:05:05;;;;;;;4.87;4.10;;;;;;;;;;5093794;28;20180;-73
2022/08/21 02:07:42;;;;;;;4.70;4.17;;;;;;;;;;5091721;28;20196;-76
2022/08/21 02:10:09;;;;;;;6.87;4.30;;;;;;;;;;5094623;28;20679;-74
2022/08/21 02:12:35;;;;;;;4.47;3.80;;;;;;;;;;5090669;28;20224;-74
2022/08/21 02:15:03;;;;;;;5.63;4.30;;;;;;;;;;5093147;28;20735;-76
2022/08/21 02:17:37;;;;;;;4.40;4.00;;;;;;;;;;5089438;28;20183;-74
2022/08/21 02:20:03;;;;;;;5.07;4.20;;;;;;;;;;5072001;28;20227;-74
2022/08/21 02:22:29;;;;;;;5.70;4.47;;;;;;;;;;5101295;28;20192;-74
2022/08/21 02:24:55;;;;;;;4.63;4.10;;;;;;;;;;5093847;28;20269;-74
2022/08/21 02:27:25;;;;;;;5.53;3.97;;;;;;;;;;5092159;28;20190;-73
2022/08/21 02:29:51;;;;;;;5.30;4.43;;;;;;;;;;5083159;28;20581;-74
2022/08/21 02:32:17;;;;;;;4.80;4.37;;;;;;;;;;5090361;28;20208;-74
2022/08/21 02:34:43;;;;;;;4.83;4.33;;;;;;;;;;5079855;28;20208;-74
2022/08/21 02:37:10;;;;;;;4.57;4.13;;;;;;;;;;5101249;28;20248;-73
2022/08/21 02:39:36;;;;;;;6.53;4.20;;;;;;;;;;5094554;28;20180;-73
2022/08/21 02:42:02;;;;;;;4.60;4.03;;;;;;;;;;5091374;28;20200;-73
2022/08/21 02:44:28;;;;;;;5.87;4.53;;;;;;;;;;5092389;28;20172;-73
2022/08/21 02:46:55;;;;;;;5.23;4.30;;;;;;;;;;5092057;28;20169;-74
2022/08/21 02:49:21;;;;;;;5.70;3.90;;;;;;;;;;5079302;28;20663;-74
2022/08/21 02:51:47;;;;;;;5.53;3.97;;;;;;;;;;5088276;28;20181;-74
2022/08/21 02:54:13;;;;;;;5.43;4.37;;;;;;;;;;5091011;28;20196;-74
2022/08/21 02:56:39;;;;;;;5.23;4.47;;;;;;;;;;5091641;28;20187;-74
2022/08/21 02:59:05;;;;;;;5.37;4.63;;;;;;;;;;5090763;28;20164;-73
2022/08/21 03:01:32;;;;;;;5.50;5.00;;;;;;;;;;5089251;28;20199;-74
2022/08/21 03:03:58;;;;;;;5.87;4.60;;;;;;;;;;5089257;28;20215;-73
2022/08/21 03:06:24;;;;;;;5.13;4.60;;;;;;;;;;5086172;28;20593;-73
2022/08/21 03:08:51;;;;;;;5.37;4.63;;;;;;;;;;5089779;28;20188;-74
2022/08/21 03:11:17;;;;;;;6.27;4.50;;;;;;;;;;5089362;28;20555;-73
2022/08/21 03:13:43;;;;;;;6.03;4.50;;;;;;;;;;5091868;28;20204;-73
2022/08/21 03:16:09;;;;;;;5.33;4.53;;;;;;;;;;5094107;28;20209;-73
2022/08/21 03:18:36;;;;;;;6.53;4.80;;;;;;;;;;5091174;28;20629;-75
2022/08/21 03:21:02;;;;;;;5.93;4.63;;;;;;;;;;5084403;28;20191;-74
2022/08/21 03:23:30;;;;;;;6.50;5.17;;;;;;;;;;5088902;28;20296;-74
2022/08/21 03:25:56;;;;;;;6.23;4.90;;;;;;;;;;5071814;28;20189;-74
2022/08/21 03:28:24;;;;;;;5.20;4.70;;;;;;;;;;5091404;28;20195;-73
2022/08/21 03:30:51;;;;;;;7.27;4.80;;;;;;;;;;5084584;28;20196;-74
2022/08/21 03:33:18;;;;;;;5.57;4.97;;;;;;;;;;5090174;28;20204;-74
2022/08/21 03:35:45;;;;;;;5.97;4.90;;;;;;;;;;5077211;28;20227;-75
2022/08/21 03:38:12;;;;;;;5.80;4.57;;;;;;;;;;5086951;28;20551;-74
2022/08/21 03:40:39;;;;;;;5.07;4.57;;;;;;;;;;5082600;28;20644;-74
2022/08/21 03:43:05;;;;;;;5.53;4.60;;;;;;;;;;5071234;28;20239;-74
2022/08/21 03:45:32;;;;;;;6.20;5.17;;;;;;;;;;5072851;28;20274;-73
2022/08/21 03:47:59;;;;;;;6.47;4.77;;;;;;;;;;5090002;28;20723;-73
2022/08/21 03:50:26;;;;;;;6.07;5.13;;;;;;;;;;5089521;28;20180;-76
2022/08/21 03:52:53;;;;;;;7.03;5.87;;;;;;;;;;5103378;28;20199;-75
2022/08/21 03:55:19;;;;;;;7.10;6.00;;;;;;;;;;5102076;28;20232;-75
2022/08/21 03:57:45;;;;;;;8.27;6.23;;;;;;;;;;5086741;28;20275;-74
2022/08/21 04:00:13;;;;;;;6.73;5.60;;;;;;;;;;5069535;28;20208;-74
2022/08/21 04:02:39;;;;;;;7.33;5.77;;;;;;;;;;5079909;28;20651;-76
2022/08/21 04:05:06;;;;;;;5.80;5.20;;;;;;;;;;5092438;28;20226;-73
2022/08/21 04:07:32;;;;;;;6.53;5.40;;;;;;;;;;5104807;28;20528;-74
2022/08/21 04:09:58;;;;;;;8.73;6.00;;;;;;;;;;5108140;28;20271;-73
2022/08/21 04:12:24;;;;;;;6.97;5.90;;;;;;;;;;5098679;28;20775;-74
2022/08/21 04:14:51;;;;;;;7.37;5.53;;;;;;;;;;5088433;28;20196;-73
2022/08/21 04:17:17;;;;;;;6.60;5.20;;;;;;;;;;5094942;28;20685;-73
2022/08/21 04:19:44;;;;;;;7.53;5.47;;;;;;;;;;5095067;28;20191;-75
2022/08/21 04:22:10;;;;;;;6.20;5.20;;;;;;;;;;5074079;28;20197;-73
2022/08/21 04:24:36;;;;;;;8.43;5.93;;;;;;;;;;5075303;28;20625;-74
2022/08/21 04:27:02;;;;;;;7.37;5.00;;;;;;;;;;5099295;28;20183;-74
2022/08/21 04:29:28;;;;;;;6.90;6.20;;;;;;;;;;5101728;28;20212;-74
2022/08/21 04:31:55;;;;;;;6.70;5.40;;;;;;;;;;5090598;28;20204;-73
2022/08/21 04:34:21;;;;;;;5.97;4.80;;;;;;;;;;5090059;28;20240;-73
2022/08/21 04:36:47;;;;;;;6.97;6.23;;;;;;;;;;5093649;28;20187;-74
2022/08/21 04:39:13;;;;;;;6.83;5.97;;;;;;;;;;5089946;28;20173;-74
2022/08/21 04:41:41;;;;;;;6.57;5.70;;;;;;;;;;5092908;28;20176;-73
2022/08/21 04:44:08;;;;;;;7.83;5.83;;;;;;;;;;5088932;28;20276;-73
2022/08/21 04:46:34;;;;;;;6.47;5.60;;;;;;;;;;5097911;28;20172;-73
2022/08/21 04:49:01;;;;;;;6.53;5.77;;;;;;;;;;5105736;28;20228;-73
2022/08/21 04:51:35;;;;;;;6.20;5.50;;;;;;;;;;5093196;28;20180;-74
2022/08/21 04:54:03;;;;;;;6.90;5.70;;;;;;;;;;5093223;28;20216;-73
2022/08/21 04:56:37;;;;;;;6.10;5.50;;;;;;;;;;5090458;28;20724;-74
2022/08/21 04:59:05;;;;;;;6.03;5.37;;;;;;;;;;5110048;27;20172;-73
2022/08/21 05:01:34;;;;;;;8.60;6.13;;;;;;;;;;5060668;28;20173;-74
2022/08/21 05:04:01;;;;;;;6.90;5.37;;;;;;;;;;5094089;28;20179;-74
2022/08/21 05:06:28;;;;;;;6.93;5.53;;;;;;;;;;5091388;28;20169;-74
2022/08/21 05:08:56;;;;;;;6.30;5.70;;;;;;;;;;5094067;28;20184;-74
2022/08/21 05:11:22;;;;;;;7.90;5.90;;;;;;;;;;5084134;28;20181;-74
2022/08/21 05:13:49;;;;;;;7.20;5.70;;;;;;;;;;5093434;28;20239;-74
2022/08/21 05:16:16;;;;;;;8.93;6.40;;;;;;;;;;5093003;28;20192;-74
2022/08/21 05:18:42;;;;;;;6.97;5.60;;;;;;;;;;5091534;28;20617;-75
2022/08/21 05:21:09;;;;;;;6.23;5.60;;;;;;;;;;5098561;28;20184;-75
2022/08/21 05:23:35;;;;;;;6.87;5.60;;;;;;;;;;5084748;28;20567;-76
2022/08/21 05:26:03;;;;;;;6.87;6.17;;;;;;;;;;5100900;28;20192;-75
2022/08/21 05:28:30;;;;;;;7.40;5.63;;;;;;;;;;5088429;28;20263;-74
2022/08/21 05:30:56;;;;;;;6.20;5.60;;;;;;;;;;5083486;28;20827;-76
2022/08/21 05:33:22;;;;;;;6.27;5.67;;;;;;;;;;5087403;28;20205;-74
2022/08/21 05:35:52;;;;;;;6.50;5.87;;;;;;;;;;5079949;28;20253;-74
2022/08/21 05:38:19;;;;;;;6.50;5.73;;;;;;;;;;5093285;28;20176;-74
2022/08/21 05:40:46;;;;;;;8.60;5.87;;;;;;;;;;5090232;28;20199;-74
2022/08/21 05:43:12;;;;;;;6.43;5.83;;;;;;;;;;5090957;28;20283;-75
2022/08/21 05:45:38;;;;;;;6.00;5.33;;;;;;;;;;5085873;28;20192;-76
2022/08/21 05:48:08;;;;;;;6.60;5.77;;;;;;;;;;5084143;28;20583;-74
2022/08/21 05:50:37;;;;;;;6.33;5.50;;;;;;;;;;5090040;28;20263;-74
2022/08/21 05:53:04;;;;;;;6.10;5.50;;;;;;;;;;5091594;28;20204;-74
2022/08/21 05:55:30;;;;;;;6.10;5.20;;;;;;;;;;5092207;28;20216;-75
2022/08/21 05:57:56;;;;;;;6.17;5.57;;;;;;;;;;5086311;28;20184;-76
2022/08/21 06:00:23;;;;;;;6.47;5.23;;;;;;;;;;5075378;28;20180;-74
2022/08/21 06:02:50;;;;;;;6.17;5.37;;;;;;;;;;5092266;28;20196;-74
2022/08/21 06:05:17;;;;;;;8.17;5.80;;;;;;;;;;5093936;28;20537;-74
2022/08/21 06:07:43;;;;;;;7.03;5.50;;;;;;;;;;5091682;28;20623;-74
2022/08/21 06:10:10;;;;;;;5.80;5.30;;;;;;;;;;5088928;28;20564;-74
2022/08/21 06:12:36;;;;;;;6.10;5.50;;;;;;;;;;5093231;28;20204;-74
2022/08/21 06:15:03;;;;;;;6.23;5.30;;;;;;;;;;5086231;28;20201;-74
2022/08/21 06:17:29;;;;;;;6.43;5.00;;;;;;;;;;5091084;28;20215;-75
2022/08/21 06:19:55;;;;;;;5.63;5.13;;;;;;;;;;5094463;28;20186;-74
2022/08/21 06:22:22;;;;;;;5.80;5.20;;;;;;;;;;5070496;28;20201;-74
2022/08/21 06:24:48;;;;;;;5.77;5.10;;;;;;;;;;5085677;28;20179;-74
2022/08/21 06:27:15;;;;;;;7.90;5.60;;;;;;;;;;5091063;28;20211;-74
2022/08/21 06:29:41;;;;;;;6.70;5.17;;;;;;;;;;5075398;28;20196;-74
2022/08/21 06:32:11;;;;;;;7.37;5.57;;;;;;;;;;5088484;28;20200;-76
2022/08/21 06:34:38;;;;;;;8.40;6.07;;;;;;;;;;5085833;28;20213;-74
2022/08/21 06:37:04;;;;;;;7.63;5.97;;;;;;;;;;5074274;28;20181;-75
2022/08/21 06:39:31;;;;;;;7.23;5.57;;;;;;;;;;5091348;28;20180;-75
2022/08/21 06:41:57;;;;;;;7.10;5.90;;;;;;;;;;5075317;28;20698;-74
2022/08/21 06:44:28;;;;;;;5.90;5.00;;;;;;;;;;5064048;28;20701;-76
2022/08/21 06:46:54;;;;;;;7.17;5.47;;;;;;;;;;5086288;28;20185;-75
2022/08/21 06:49:20;;;;;;;6.17;5.00;;;;;;;;;;5089981;28;20622;-75
2022/08/21 06:51:46;;;;;;;6.73;5.60;;;;;;;;;;5076041;28;20258;-74
2022/08/21 06:54:12;;;;;;;5.97;5.37;;;;;;;;;;5071463;28;20532;-75
2022/08/21 06:56:39;;;;;;;6.00;5.27;;;;;;;;;;5089179;28;20180;-73
2022/08/21 06:59:05;;;;;;;7.30;5.73;;;;;;;;;;5100206;28;20184;-70
2022/08/21 07:01:32;;;;;;;7.30;5.90;;;;;;;;;;5091621;28;20600;-73
2022/08/21 07:03:58;;;;;;;6.53;5.33;;;;;;;;;;5091322;28;20196;-71
2022/08/21 07:06:25;;;;;;;6.97;5.63;;;;;;;;;;5087689;28;20251;-73
2022/08/21 07:08:51;;;;;;;5.83;5.23;;;;;;;;;;5073762;28;20207;-76
2022/08/21 07:11:22;;;;;;;6.00;5.40;;;;;;;;;;5089045;28;20662;-70
2022/08/21 07:13:48;;;;;;;7.10;6.10;;;;;;;;;;5087628;28;20254;-71
2022/08/21 07:16:15;;;;;;;6.50;5.00;;;;;;;;;;5091169;28;20208;-70
2022/08/21 07:18:41;;;;;;;5.87;4.93;;;;;;;;;;5090148;28;20180;-74
2022/08/21 07:21:08;;;;;;;6.20;5.60;;;;;;;;;;5084556;28;20242;-70
2022/08/21 07:23:37;;;;;;;7.40;5.67;;;;;;;;;;5086106;28;20227;-70
2022/08/21 07:26:04;;;;;;;7.43;5.70;;;;;;;;;;5089842;28;20201;-72
2022/08/21 07:28:30;;;;;;;8.33;5.67;;;;;;;;;;5086789;28;20187;-70
2022/08/21 07:30:57;;;;;;;6.40;5.70;;;;;;;;;;5088513;28;20812;-72
2022/08/21 07:33:25;;;;;;;7.93;5.70;;;;;;;;;;5087624;28;20192;-74
2022/08/21 07:35:51;;;;;;;7.17;5.87;;;;;;;;;;5088273;28;20211;-71
2022/08/21 07:38:18;;;;;;;8.47;6.07;;;;;;;;;;5092865;28;20176;-70
2022/08/21 07:40:45;;;;;;;7.13;5.47;;;;;;;;;;5084629;28;20196;-72
2022/08/21 07:43:11;;;;;;;5.40;4.90;;;;;;;;;;5091513;28;20199;-70
2022/08/21 07:45:37;;;;;;;7.07;5.30;;;;;;;;;;5088023;28;20220;-70
2022/08/21 07:48:04;;;;;;;7.63;5.10;;;;;;;;;;5089232;28;20219;-71
2022/08/21 07:50:30;;;;;;;7.50;5.53;;;;;;;;;;5086848;28;20180;-74
2022/08/21 07:52:56;;;;;;;8.77;5.50;;;;;;;;;;5089242;28;20218;-71
2022/08/21 07:55:23;;;;;;;7.47;5.83;;;;;;;;;;5089588;28;20204;-70
2022/08/21 07:57:50;;;;;;;6.07;5.00;;;;;;;;;;5088751;28;20620;-73
2022/08/21 08:00:17;;;;;;;7.73;4.70;;;;;;;;;;5087056;28;20184;-71
2022/08/21 08:02:46;;;;;;;8.13;5.27;;;;;;;;;;5086656;28;20644;-70
2022/08/21 08:05:12;;;;;;;8.17;5.30;;;;;;;;;;5088231;28;20222;-71
2022/08/21 08:07:39;;;;;;;9.83;5.17;;;;;;;;;;5089879;28;20200;-70
2022/08/21 08:10:06;;;;;;;8.03;5.70;;;;;;;;;;5071425;28;20181;-70
2022/08/21 08:12:33;;;;;;;7.10;5.00;;;;;;;;;;5088317;28;20299;-70
2022/08/21 08:15:00;;;;;;;7.50;5.73;;;;;;;;;;5089752;28;20254;-70
2022/08/21 08:17:26;;;;;;;6.83;5.90;;;;;;;;;;5090525;28;20675;-70
2022/08/21 08:19:53;;;;;;;10.83;5.50;;;;;;;;;;5087573;28;20180;-70
2022/08/21 08:22:21;;;;;;;8.97;5.63;;;;;;;;;;5089150;28;20200;-70
2022/08/21 08:24:48;;;;;;;7.00;5.03;;;;;;;;;;5088122;28;20231;-70
2022/08/21 08:27:15;;;;;;;7.20;5.07;;;;;;;;;;5086925;28;20230;-73
2022/08/21 08:29:41;;;;;;;9.47;5.60;;;;;;;;;;5088206;28;20226;-70
2022/08/21 08:32:07;;;;;;;10.17;6.53;;;;;;;;;;5087619;28;20233;-70
2022/08/21 08:34:34;;;;;;;8.63;6.50;;;;;;;;;;5087814;28;20196;-70
2022/08/21 08:37:00;;;;;;;7.97;6.03;;;;;;;;;;5088731;28;20185;-70
2022/08/21 08:39:27;;;;;;;6.70;5.47;;;;;;;;;;5089655;28;20208;-72
2022/08/21 08:42:02;;;;;;;8.20;6.20;;;;;;;;;;5088987;28;20184;-71
2022/08/21 08:44:28;;;;;;;10.77;5.77;;;;;;;;;;5086582;28;20678;-71
2022/08/21 08:46:54;;;;;;;8.57;5.90;;;;;;;;;;5095781;28;20203;-71
2022/08/21 08:49:29;;;;;;;12.30;6.07;;;;;;;;;;5091288;28;20191;-71
2022/08/21 08:52:01;;;;;;;8.03;6.10;;;;;;;;;;5091488;28;20557;-71
2022/08/21 08:54:31;;;;;;;7.53;5.80;;;;;;;;;;5091733;28;20208;-71
2022/08/21 08:56:58;;;;;;;6.83;5.77;;;;;;;;;;5092495;28;20181;-71
2022/08/21 08:59:39;;;;;;;5.93;5.33;;;;;;;;;;5093692;28;20215;-71
2022/08/21 09:02:06;;;;;;;6.10;5.50;;;;;;;;;;5092444;28;20196;-71
2022/08/21 09:04:32;;;;;;;6.63;5.37;;;;;;;;;;5089819;28;20241;-71
2022/08/21 09:07:31;;;;;;;9.07;6.07;;;;;;;;;;5094022;28;20233;-71
2022/08/21 09:10:03;;;;;;;6.83;4.97;;;;;;;;;;5043013;28;20203;-71
2022/08/21 09:12:29;;;;;;;9.07;5.17;;;;;;;;;;5091956;28;20274;-71
2022/08/21 09:15:00;;;;;;;9.17;6.10;;;;;;;;;;5091469;28;20203;-70
2022/08/21 09:17:44;;;;;;;7.17;5.43;;;;;;;;;;5090950;28;20188;-71
2022/08/21 09:20:29;;;;;;;8.43;5.40;;;;;;;;;;5088801;28;20981;-71
2022/08/21 09:23:28;;;;;;;7.13;6.00;;;;;;;;;;5083491;28;20208;-70
2022/08/21 09:26:00;;;;;;;7.67;5.83;;;;;;;;;;5057057;28;20192;-71
2022/08/21 09:28:27;;;;;;;8.73;5.73;;;;;;;;;;5092308;28;20187;-71
2022/08/21 09:30:56;;;;;;;7.40;5.23;;;;;;;;;;5090105;28;20184;-71
2022/08/21 09:33:22;;;;;;;8.63;6.00;;;;;;;;;;5086195;28;20197;-72
2022/08/21 09:35:52;;;;;;;6.97;5.13;;;;;;;;;;5071367;28;20205;-71
2022/08/21 09:38:27;;;;;;;7.17;4.77;;;;;;;;;;5077318;28;20598;-71
2022/08/21 09:41:01;;;;;;;7.83;4.77;;;;;;;;;;5091008;28;20260;-71
2022/08/21 09:43:27;;;;;;;5.80;4.17;;;;;;;;;;5088683;28;20245;-71
2022/08/21 09:46:05;;;;;;;7.10;4.03;;;;;;;;;;5090792;28;20636;-70
2022/08/21 09:48:39;;;;;;;7.20;4.70;;;;;;;;;;5090485;28;20188;-71
2022/08/21 09:51:10;;;;;;;9.17;5.20;;;;;;;;;;5091349;28;20263;-72
2022/08/21 09:53:42;;;;;;;5.37;4.27;;;;;;;;;;5089587;28;20218;-71
2022/08/21 09:59:12;;;;;;;7.17;3.80;;;;;;;;;;5083456;28;20185;-70
2022/08/21 10:01:42;;;;;;;8.93;3.80;;;;;;;;;;5090807;28;20180;-71
2022/08/21 10:04:09;;;;;;;7.53;3.70;;;;;;;;;;5090517;28;20561;-70
2022/08/21 10:06:35;;;;;;;7.57;3.90;;;;;;;;;;5087215;28;20189;-71
2022/08/21 10:09:06;;;;;;;4.73;3.03;;;;;;;;;;5090397;28;20196;-72
2022/08/21 10:11:34;;;;;;;6.07;3.53;;;;;;;;;;5085635;28;20211;-72
2022/08/21 10:14:12;;;;;;;8.70;3.80;;;;;;;;;;5092108;28;20207;-72
2022/08/21 10:16:50;;;;;;;5.77;3.50;;;;;;;;;;5092163;28;20596;-71
2022/08/21 10:19:26;;;;;;;9.13;3.77;;;;;;;;;;5092602;28;20182;-71
2022/08/21 10:22:00;;;;;;;5.00;4.07;;;;;;;;;;5091664;28;20177;-71
2022/08/21 10:24:33;;;;;;;7.77;4.10;;;;;;;;;;5087849;28;20663;-72
2022/08/21 10:27:22;;;;;;;5.87;3.67;;;;;;;;;;5091155;28;20218;-70
2022/08/21 10:29:57;;;;;;;4.40;3.67;;;;;;;;;;5086770;28;20261;-71
2022/08/21 10:32:36;;;;;;;6.60;3.70;;;;;;;;;;5085845;28;20246;-71
2022/08/21 10:35:20;;;;;;;5.30;3.27;;;;;;;;;;5077587;28;20767;-71
2022/08/21 10:37:47;;;;;;;7.10;4.20;;;;;;;;;;5097617;28;20182;-72
2022/08/21 10:40:21;;;;;;;8.23;3.67;;;;;;;;;;5095442;28;20298;-71
2022/08/21 10:43:10;;;;;;;4.00;3.50;;;;;;;;;;5091041;28;20209;-71
2022/08/21 10:45:41;;;;;;;5.53;3.80;;;;;;;;;;5085906;28;20218;-72
2022/08/21 10:48:09;;;;;;;5.50;3.63;;;;;;;;;;5091273;28;20191;-76
2022/08/21 10:50:41;;;;;;;6.47;4.17;;;;;;;;;;5091992;28;20263;-74
2022/08/21 10:53:27;;;;;;;7.60;4.43;;;;;;;;;;5091455;28;20206;-73
2022/08/21 10:55:59;;;;;;;6.10;4.00;;;;;;;;;;5093234;28;20273;-73
2022/08/21 10:58:28;;;;;;;5.00;3.93;;;;;;;;;;5092186;28;20181;-74
2022/08/21 11:00:58;;;;;;;6.07;4.37;;;;;;;;;;5092746;28;20209;-74
2022/08/21 11:03:29;;;;;;;8.37;3.80;;;;;;;;;;5080617;28;20242;-76
2022/08/21 11:05:58;;;;;;;4.57;3.50;;;;;;;;;;5080464;28;22021;-76
2022/08/21 11:08:29;;;;;;;6.00;3.70;;;;;;;;;;5085561;28;20176;-75
2022/08/21 11:11:01;;;;;;;6.53;3.60;;;;;;;;;;5082916;28;20184;-75
2022/08/21 11:13:30;;;;;;;7.13;3.70;;;;;;;;;;5085072;28;20641;-76
2022/08/21 11:15:59;;;;;;;6.07;3.53;;;;;;;;;;5092072;28;20299;-75
2022/08/21 11:18:28;;;;;;;4.20;3.20;;;;;;;;;;5070536;28;20177;-75
2022/08/21 11:21:20;;;;;;;5.97;3.37;;;;;;;;;;5075599;28;20695;-75
2022/08/21 11:23:53;;;;;;;6.03;3.30;;;;;;;;;;5074129;28;20211;-75
2022/08/21 11:26:29;;;;;;;5.57;3.40;;;;;;;;;;5059136;28;20655;-75
2022/08/21 11:28:58;;;;;;;5.03;3.10;;;;;;;;;;5080804;28;20188;-75
2022/08/21 11:31:39;;;;;;;4.57;3.40;;;;;;;;;;5086958;28;20211;-75
2022/08/21 11:34:05;;;;;;;4.33;3.30;;;;;;;;;;5087066;28;20188;-75
2022/08/21 11:36:39;;;;;;;7.10;3.53;;;;;;;;;;5082795;28;20223;-75
2022/08/21 11:39:13;;;;;;;5.33;3.33;;;;;;;;;;5085926;28;20192;-75
2022/08/21 11:41:43;;;;;;;6.40;3.20;;;;;;;;;;5087996;28;20210;-75
2022/08/21 11:44:13;;;;;;;5.00;3.00;;;;;;;;;;5088424;28;20226;-75
2022/08/21 11:46:44;;;;;;;6.10;3.70;;;;;;;;;;5087746;28;20617;-75
2022/08/21 11:49:19;;;;;;;5.80;3.13;;;;;;;;;;5086218;28;20191;-75
2022/08/21 11:51:53;;;;;;;7.33;3.30;;;;;;;;;;5082830;28;20553;-75
2022/08/21 11:54:36;;;;;;;3.50;2.77;;;;;;;;;;5078065;28;20212;-75
2022/08/21 11:57:02;;;;;;;3.57;2.60;;;;;;;;;;5090059;28;20187;-75
2022/08/21 11:59:41;;;;;;;3.83;2.57;;;;;;;;;;5087443;28;20517;-75
2022/08/21 12:02:13;;;;;;;3.30;2.40;;;;;;;;;;5090684;28;20728;-76
2022/08/21 12:04:44;;;;;;;3.93;2.67;;;;;;;;;;5086438;28;20192;-75
2022/08/21 12:07:34;;;;;;;4.20;2.50;;;;;;;;;;5085612;28;20212;-75
2022/08/21 12:10:01;;;;;;;3.80;2.63;;;;;;;;;;5073410;28;20219;-76
2022/08/21 12:12:34;;;;;;;3.33;2.50;;;;;;;;;;5088076;28;20236;-75
2022/08/21 12:15:24;;;;;;;3.33;2.70;;;;;;;;;;5067755;28;20206;-75
2022/08/21 12:18:07;;;;;;;3.43;2.40;;;;;;;;;;5078084;28;20180;-76
2022/08/21 12:20:45;;;;;;;3.87;2.40;;;;;;;;;;5078242;28;20180;-75
2022/08/21 12:23:11;;;;;;;4.07;2.20;;;;;;;;;;5082379;28;20200;-73
2022/08/21 12:26:06;;;;;;;3.53;2.60;;;;;;;;;;5090475;28;20642;-72
2022/08/21 12:28:34;;;;;;;3.83;2.33;;;;;;;;;;5031591;28;20660;-74
2022/08/21 12:31:00;;;;;;;4.60;2.53;;;;;;;;;;5094320;28;20172;-76
2022/08/21 12:33:31;;;;;;;4.27;2.27;;;;;;;;;;5092958;28;20241;-76
2022/08/21 12:36:11;;;;;;;5.10;2.90;;;;;;;;;;5092456;28;20580;-76
2022/08/21 12:38:40;;;;;;;3.73;2.70;;;;;;;;;;5079305;28;20180;-76
2022/08/21 12:41:10;;;;;;;4.20;2.63;;;;;;;;;;5103744;28;20177;-76
2022/08/21 12:43:39;;;;;;;4.80;2.70;;;;;;;;;;5090039;28;20215;-76
2022/08/21 12:46:05;;;;;;;4.67;3.00;;;;;;;;;;5088614;28;20270;-77
2022/08/21 12:48:43;;;;;;;5.37;3.00;;;;;;;;;;5094099;28;20177;-77
2022/08/21 12:51:17;;;;;;;4.73;3.03;;;;;;;;;;5108184;28;20186;-77
2022/08/21 12:53:51;;;;;;;4.63;3.17;;;;;;;;;;5094081;28;20214;-76
2022/08/21 12:56:19;;;;;;;3.27;2.90;;;;;;;;;;5091020;28;20699;-76
2022/08/21 12:58:47;;;;;;;3.50;2.63;;;;;;;;;;5093952;28;20181;-76
2022/08/21 13:01:17;;;;;;;4.83;3.20;;;;;;;;;;5091654;28;20177;-76
2022/08/21 13:03:44;;;;;;;5.97;3.10;;;;;;;;;;5084893;28;20208;-77
2022/08/21 13:06:16;;;;;;;3.87;2.63;;;;;;;;;;5094149;28;20676;-76
2022/08/21 13:08:43;;;;;;;4.80;3.00;;;;;;;;;;5093353;28;20276;-77
2022/08/21 13:11:10;;;;;;;4.87;3.00;;;;;;;;;;5092177;28;20191;-76
2022/08/21 13:13:38;;;;;;;3.77;2.80;;;;;;;;;;5093761;28;20215;-76
2022/08/21 13:16:07;;;;;;;4.53;3.03;;;;;;;;;;5093417;28;20256;-77
2022/08/21 13:18:35;;;;;;;5.23;3.10;;;;;;;;;;5092577;28;20647;-76
2022/08/21 13:21:06;;;;;;;3.13;2.50;;;;;;;;;;5085568;28;20604;-77
2022/08/21 13:23:33;;;;;;;4.93;3.20;;;;;;;;;;5090343;28;20238;-77
2022/08/21 13:25:59;;;;;;;4.47;2.93;;;;;;;;;;5092262;28;20268;-76
2022/08/21 13:28:33;;;;;;;5.27;3.10;;;;;;;;;;5093748;28;20187;-77
2022/08/21 13:31:01;;;;;;;4.27;3.07;;;;;;;;;;5080024;28;20238;-77
2022/08/21 13:33:30;;;;;;;4.77;3.10;;;;;;;;;;5093177;28;20215;-76
2022/08/21 13:35:56;;;;;;;10.67;3.37;;;;;;;;;;5086873;28;20771;-76
2022/08/21 13:38:26;;;;;;;6.30;3.10;;;;;;;;;;5082379;28;20187;-76
2022/08/21 13:40:56;;;;;;;4.00;3.10;;;;;;;;;;5086090;28;20207;-76
2022/08/21 13:43:26;;;;;;;5.43;3.37;;;;;;;;;;5091791;28;20256;-76
2022/08/21 13:45:53;;;;;;;3.70;3.00;;;;;;;;;;5084811;28;20198;-77
2022/08/21 13:48:20;;;;;;;7.60;3.20;;;;;;;;;;5076272;28;20186;-79
2022/08/21 13:50:47;;;;;;;4.37;3.13;;;;;;;;;;5088772;28;20214;-76
2022/08/21 13:53:28;;;;;;;3.53;3.07;;;;;;;;;;5080855;28;20224;-81
2022/08/21 13:55:54;;;;;;;4.03;2.87;;;;;;;;;;5081369;28;20193;-76
2022/08/21 13:58:27;;;;;;;4.07;2.93;;;;;;;;;;5089390;28;20173;-76
2022/08/21 14:00:54;;;;;;;3.73;2.87;;;;;;;;;;5085288;28;20194;-77
2022/08/21 14:03:28;;;;;;;4.63;3.27;;;;;;;;;;5088229;28;20211;-76
2022/08/21 14:05:54;;;;;;;4.83;3.27;;;;;;;;;;5084309;28;20270;-76
2022/08/21 14:08:28;;;;;;;3.87;3.03;;;;;;;;;;5091118;28;20183;-76
2022/08/21 14:10:54;;;;;;;4.33;2.87;;;;;;;;;;5085509;28;20232;-76
2022/08/21 14:13:38;;;;;;;4.67;3.27;;;;;;;;;;5086026;28;20217;-76
2022/08/21 14:16:10;;;;;;;4.17;3.20;;;;;;;;;;5089200;28;20220;-77
2022/08/21 14:18:44;;;;;;;4.13;3.13;;;;;;;;;;5093764;28;20255;-77
2022/08/21 14:21:11;;;;;;;4.93;3.30;;;;;;;;;;5091358;28;20179;-77
2022/08/21 14:23:38;;;;;;;5.17;3.17;;;;;;;;;;5086900;28;20609;-76
2022/08/21 14:26:06;;;;;;;4.80;3.23;;;;;;;;;;5071007;28;20193;-76
2022/08/21 14:28:40;;;;;;;3.83;3.10;;;;;;;;;;5087900;28;20207;-77
2022/08/21 14:31:17;;;;;;;5.97;3.10;;;;;;;;;;5088668;28;20267;-76
2022/08/21 14:33:44;;;;;;;4.33;3.30;;;;;;;;;;5083378;28;20278;-76
2022/08/21 14:36:10;;;;;;;4.63;2.97;;;;;;;;;;5083278;28;20212;-76
2022/08/21 14:38:37;;;;;;;4.33;2.87;;;;;;;;;;5079462;28;20189;-77
2022/08/21 14:41:25;;;;;;;6.67;3.27;;;;;;;;;;5084842;28;20276;-77
2022/08/21 14:43:53;;;;;;;6.77;3.20;;;;;;;;;;5088334;28;20257;-77
2022/08/21 14:46:24;;;;;;;4.27;3.10;;;;;;;;;;5086805;28;20183;-76
2022/08/21 14:48:51;;;;;;;4.67;3.20;;;;;;;;;;5089416;28;20286;-76
2022/08/21 14:51:17;;;;;;;5.10;2.73;;;;;;;;;;5085778;28;20196;-77
2022/08/21 14:53:44;;;;;;;7.37;3.20;;;;;;;;;;5087290;28;20204;-76
2022/08/21 14:56:11;;;;;;;3.77;2.97;;;;;;;;;;5087918;28;20231;-76